Time;durP1;ratioP1;P1;durP2;ratioP2;P2;SDS_P1;SDS_P2;PMS_P1;PMS_P2;Temp;Humidity;BMP_temperature;BMP_pressure;BME280_temperature;BME280_humidity;BME280_pressure;Samples;Min_cycle;Max_cycle;Signal;HPM_P1;HPM_P2
2023/10/24 00:01:45;;;;;;;13.97;10.47;;;11.60;34.60;;;;;;5038161;28;20486;-65
2023/10/24 00:04:13;;;;;;;13.03;11.10;;;11.70;34.70;;;;;;5043546;28;20494;-64
2023/10/24 00:06:39;;;;;;;14.83;11.40;;;11.60;34.80;;;;;;5043912;28;20490;-63
2023/10/24 00:09:06;;;;;;;13.57;10.80;;;11.60;34.90;;;;;;5045201;28;20458;-65
2023/10/24 00:11:34;;;;;;;16.93;11.90;;;11.60;34.90;;;;;;5044664;28;20461;-65
2023/10/24 00:14:01;;;;;;;13.83;11.53;;;11.60;34.80;;;;;;5044275;28;20494;-63
2023/10/24 00:16:27;;;;;;;15.87;11.97;;;11.70;34.80;;;;;;5044696;28;20950;-63
2023/10/24 00:18:54;;;;;;;18.77;10.90;;;11.70;34.90;;;;;;5044794;28;20458;-63
2023/10/24 00:21:21;;;;;;;13.83;11.93;;;11.70;34.80;;;;;;5044961;28;20470;-65
2023/10/24 00:23:47;;;;;;;11.50;10.30;;;11.70;35.40;;;;;;5043255;28;20462;-62
2023/10/24 00:26:14;;;;;;;15.83;11.67;;;11.70;34.80;;;;;;5046149;28;20960;-64
2023/10/24 00:28:42;;;;;;;15.10;11.07;;;11.70;34.60;;;;;;5042522;28;20458;-63
2023/10/24 00:31:09;;;;;;;16.10;11.03;;;11.70;35.00;;;;;;5041200;28;20477;-65
2023/10/24 00:33:36;;;;;;;13.40;10.60;;;11.70;34.80;;;;;;5040380;28;20457;-65
2023/10/24 00:36:02;;;;;;;14.93;12.07;;;11.80;35.10;;;;;;5044718;28;20482;-65
2023/10/24 00:38:29;;;;;;;12.70;11.40;;;11.80;35.20;;;;;;5041635;28;20458;-63
2023/10/24 00:40:56;;;;;;;14.67;11.77;;;11.70;35.40;;;;;;5043325;28;20460;-63
2023/10/24 00:43:22;;;;;;;16.07;12.70;;;11.80;35.30;;;;;;5044487;28;20482;-64
2023/10/24 00:45:50;;;;;;;16.40;14.00;;;11.80;35.40;;;;;;5042590;28;20893;-63
2023/10/24 00:48:17;;;;;;;17.50;13.10;;;11.80;35.40;;;;;;5040519;28;20470;-65
2023/10/24 00:50:44;;;;;;;15.70;12.17;;;11.90;35.20;;;;;;5040254;28;20507;-63
2023/10/24 00:53:11;;;;;;;15.13;12.90;;;11.90;35.00;;;;;;5042456;28;20450;-64
2023/10/24 00:55:39;;;;;;;17.70;12.40;;;11.90;34.80;;;;;;5048733;28;20477;-64
2023/10/24 00:58:08;;;;;;;16.30;12.10;;;11.90;34.90;;;;;;5046294;28;20469;-63
2023/10/24 01:00:35;;;;;;;17.27;12.73;;;11.90;34.70;;;;;;5045991;28;20468;-63
2023/10/24 01:03:04;;;;;;;14.17;11.97;;;11.90;34.40;;;;;;5044830;28;20481;-64
2023/10/24 01:05:32;;;;;;;14.60;11.77;;;12.00;34.20;;;;;;5046602;28;20978;-63
2023/10/24 01:07:59;;;;;;;18.63;12.17;;;11.90;34.20;;;;;;5048465;28;20458;-64
2023/10/24 01:10:26;;;;;;;15.87;13.10;;;11.90;34.20;;;;;;5043657;28;20994;-63
2023/10/24 01:12:52;;;;;;;18.83;14.13;;;12.00;34.10;;;;;;5045585;28;20453;-63
2023/10/24 01:15:19;;;;;;;15.23;12.70;;;12.00;34.00;;;;;;5044703;28;20486;-63
2023/10/24 01:17:50;;;;;;;20.10;12.67;;;12.00;34.00;;;;;;5044704;28;20458;-63
2023/10/24 01:20:19;;;;;;;16.73;13.07;;;12.00;34.30;;;;;;5043858;28;20985;-65
2023/10/24 01:22:47;;;;;;;15.57;13.27;;;11.90;34.20;;;;;;5044915;28;20524;-63
2023/10/24 01:25:15;;;;;;;19.40;13.87;;;11.90;34.40;;;;;;5047707;28;20481;-63
2023/10/24 01:27:43;;;;;;;16.40;13.20;;;11.90;34.30;;;;;;5049342;28;20945;-63
2023/10/24 01:30:11;;;;;;;15.87;13.23;;;11.90;34.40;;;;;;5046243;28;20487;-63
2023/10/24 01:32:38;;;;;;;17.13;13.10;;;11.90;34.20;;;;;;5046923;28;20592;-65
2023/10/24 01:35:05;;;;;;;15.80;13.93;;;11.90;34.30;;;;;;5044755;28;20473;-63
2023/10/24 01:37:32;;;;;;;17.63;14.27;;;11.90;34.20;;;;;;5045964;28;20473;-65
2023/10/24 01:40:00;;;;;;;18.27;13.17;;;11.90;34.20;;;;;;5047254;28;20971;-63
2023/10/24 01:42:27;;;;;;;17.10;14.00;;;11.90;34.00;;;;;;5041587;28;20474;-65
2023/10/24 01:44:53;;;;;;;18.27;13.17;;;12.00;33.90;;;;;;5044533;28;20493;-64
2023/10/24 01:47:20;;;;;;;17.93;11.67;;;11.90;34.50;;;;;;5043808;28;20473;-63
2023/10/24 01:49:47;;;;;;;13.50;11.70;;;11.80;34.70;;;;;;5044849;28;20458;-63
2023/10/24 01:52:13;;;;;;;14.40;11.00;;;11.80;34.60;;;;;;5047992;28;20461;-66
2023/10/24 01:54:40;;;;;;;15.60;11.90;;;11.80;34.50;;;;;;5043547;28;20593;-64
2023/10/24 01:57:08;;;;;;;16.40;11.17;;;11.80;34.60;;;;;;5045392;28;20481;-63
2023/10/24 01:59:35;;;;;;;13.87;11.10;;;11.80;34.60;;;;;;5044258;28;20458;-63
2023/10/24 02:02:02;;;;;;;14.17;11.20;;;11.80;34.60;;;;;;5046281;28;20509;-65
2023/10/24 02:04:28;;;;;;;13.70;11.57;;;11.80;34.70;;;;;;5046593;28;20482;-63
2023/10/24 02:06:56;;;;;;;17.57;12.60;;;11.80;34.80;;;;;;5045319;28;20462;-64
2023/10/24 02:09:23;;;;;;;17.47;12.57;;;11.80;34.80;;;;;;5049876;28;20466;-63
2023/10/24 02:11:50;;;;;;;13.43;11.77;;;11.80;34.60;;;;;;5047089;28;20458;-64
2023/10/24 02:14:18;;;;;;;16.33;12.40;;;11.80;34.40;;;;;;5045427;28;21057;-63
2023/10/24 02:16:44;;;;;;;15.10;12.87;;;11.80;34.30;;;;;;5048538;28;20458;-64
2023/10/24 02:19:11;;;;;;;14.63;12.30;;;11.90;34.30;;;;;;5046694;28;20466;-64
2023/10/24 02:21:38;;;;;;;15.93;12.00;;;11.80;34.30;;;;;;5047811;28;20470;-64
2023/10/24 02:24:05;;;;;;;21.63;12.77;;;11.80;34.10;;;;;;5044962;28;20995;-64
2023/10/24 02:26:32;;;;;;;16.70;12.30;;;11.80;34.10;;;;;;5045733;28;20466;-63
2023/10/24 02:28:59;;;;;;;18.83;13.47;;;11.80;34.00;;;;;;5049381;28;21151;-64
2023/10/24 02:31:27;;;;;;;17.80;13.40;;;11.80;34.10;;;;;;5054421;28;20517;-63
2023/10/24 02:33:54;;;;;;;17.00;13.50;;;11.80;34.00;;;;;;5052552;28;20628;-64
2023/10/24 02:36:20;;;;;;;14.90;12.60;;;11.80;34.10;;;;;;5052653;28;20456;-64
2023/10/24 02:38:47;;;;;;;17.73;12.60;;;11.80;34.00;;;;;;5048665;28;20458;-64
2023/10/24 02:41:14;;;;;;;16.63;12.50;;;11.80;34.00;;;;;;5050881;28;20462;-65
2023/10/24 02:43:40;;;;;;;15.00;12.83;;;11.80;33.90;;;;;;5048154;28;21032;-66
2023/10/24 02:46:07;;;;;;;14.33;11.97;;;11.80;33.90;;;;;;5048533;28;20490;-65
2023/10/24 02:48:35;;;;;;;15.77;12.23;;;11.80;33.90;;;;;;5052771;28;20470;-65
2023/10/24 02:51:02;;;;;;;15.97;12.40;;;11.80;33.80;;;;;;5050940;28;20624;-64
2023/10/24 02:53:29;;;;;;;18.00;13.30;;;11.80;33.80;;;;;;5044789;28;20459;-64
2023/10/24 02:55:56;;;;;;;19.87;11.90;;;11.80;33.80;;;;;;5046063;28;21036;-64
2023/10/24 02:58:22;;;;;;;15.40;12.53;;;11.70;34.00;;;;;;5045543;28;20459;-63
2023/10/24 03:00:49;;;;;;;20.63;12.87;;;11.80;33.80;;;;;;5047065;28;20470;-66
2023/10/24 03:03:17;;;;;;;16.10;13.47;;;11.80;33.80;;;;;;5046369;28;20486;-64
2023/10/24 03:05:45;;;;;;;17.47;13.40;;;11.70;33.80;;;;;;5041784;28;20479;-64
2023/10/24 03:08:12;;;;;;;17.40;13.07;;;11.70;33.90;;;;;;5047394;28;20997;-65
2023/10/24 03:10:42;;;;;;;19.03;13.93;;;11.60;33.80;;;;;;5046353;28;20476;-65
2023/10/24 03:13:09;;;;;;;19.43;17.00;;;11.60;34.00;;;;;;5044026;28;20503;-65
2023/10/24 03:15:35;;;;;;;18.00;14.07;;;11.60;33.90;;;;;;5041428;28;20865;-65
2023/10/24 03:18:02;;;;;;;17.37;14.17;;;11.60;33.70;;;;;;5044282;28;20501;-65
2023/10/24 03:20:29;;;;;;;17.20;13.63;;;11.60;33.80;;;;;;5041128;28;20473;-65
2023/10/24 03:22:57;;;;;;;16.43;14.13;;;11.60;33.80;;;;;;5042630;28;20490;-65
2023/10/24 03:25:25;;;;;;;20.23;14.90;;;11.50;33.90;;;;;;5043034;28;20489;-65
2023/10/24 03:27:53;;;;;;;16.27;13.80;;;11.50;33.90;;;;;;5042636;28;20494;-65
2023/10/24 03:30:20;;;;;;;18.90;14.60;;;11.50;33.90;;;;;;5042701;28;20525;-65
2023/10/24 03:32:47;;;;;;;17.50;15.10;;;11.40;33.90;;;;;;5045220;28;20465;-65
2023/10/24 03:35:14;;;;;;;17.27;15.47;;;11.40;33.80;;;;;;5043167;28;20478;-65
2023/10/24 03:37:41;;;;;;;17.50;14.87;;;11.40;33.90;;;;;;5047241;28;20465;-65
2023/10/24 03:40:10;;;;;;;16.43;14.03;;;11.40;34.00;;;;;;5052041;28;20462;-65
2023/10/24 03:42:37;;;;;;;16.73;13.10;;;11.40;34.00;;;;;;5059245;28;20488;-65
2023/10/24 03:45:04;;;;;;;21.03;13.07;;;11.40;34.00;;;;;;5052914;28;20490;-65
2023/10/24 03:47:31;;;;;;;13.80;12.10;;;11.40;34.10;;;;;;5040578;28;20469;-65
2023/10/24 03:49:58;;;;;;;12.87;11.23;;;11.40;34.00;;;;;;5041170;28;20470;-65
2023/10/24 03:52:25;;;;;;;17.60;13.90;;;11.40;34.00;;;;;;5041352;28;20584;-65
2023/10/24 03:54:51;;;;;;;14.77;12.40;;;11.40;33.90;;;;;;5041646;28;20494;-65
2023/10/24 03:57:19;;;;;;;17.63;13.43;;;11.40;34.00;;;;;;5042116;28;20457;-65
2023/10/24 03:59:46;;;;;;;14.50;12.80;;;11.40;33.90;;;;;;5045223;28;20466;-65
2023/10/24 04:02:13;;;;;;;17.43;14.20;;;11.40;33.90;;;;;;5044673;28;20478;-65
2023/10/24 04:04:39;;;;;;;15.67;13.83;;;11.40;33.90;;;;;;5046406;28;20489;-65
2023/10/24 04:07:06;;;;;;;19.23;13.77;;;11.40;33.80;;;;;;5045497;28;20990;-65
2023/10/24 04:09:33;;;;;;;18.90;13.70;;;11.40;33.90;;;;;;5057605;23;21778;-64
2023/10/24 04:12:00;;;;;;;19.37;13.07;;;11.40;34.00;;;;;;5047695;28;20977;-64
2023/10/24 04:14:28;;;;;;;16.00;13.83;;;11.40;34.00;;;;;;5036321;28;20541;-64
2023/10/24 04:16:55;;;;;;;16.80;13.17;;;11.40;34.00;;;;;;5021550;28;21114;-64
2023/10/24 04:19:22;;;;;;;22.77;12.50;;;11.30;34.20;;;;;;5025763;28;20469;-64
2023/10/24 04:21:48;;;;;;;18.87;13.70;;;11.30;34.60;;;;;;5023583;28;20459;-64
2023/10/24 04:24:15;;;;;;;14.33;12.10;;;11.20;34.60;;;;;;5024420;28;20486;-65
2023/10/24 04:26:42;;;;;;;19.57;12.90;;;11.20;34.60;;;;;;5028005;28;20955;-65
2023/10/24 04:29:09;;;;;;;27.17;14.33;;;11.20;34.70;;;;;;5019656;28;20468;-65
2023/10/24 04:31:37;;;;;;;17.40;13.10;;;11.20;34.70;;;;;;5025520;28;20486;-65
2023/10/24 04:34:04;;;;;;;15.47;11.77;;;11.20;34.80;;;;;;5027453;28;20478;-65
2023/10/24 04:36:31;;;;;;;15.70;11.93;;;11.20;34.60;;;;;;5022973;28;20464;-65
2023/10/24 04:38:57;;;;;;;20.73;13.43;;;11.20;34.60;;;;;;5025124;28;20970;-65
2023/10/24 04:41:25;;;;;;;17.67;12.97;;;11.20;34.60;;;;;;5024077;28;20475;-65
2023/10/24 04:43:52;;;;;;;16.60;13.70;;;11.20;34.60;;;;;;5026583;28;20486;-65
2023/10/24 04:46:18;;;;;;;22.23;14.57;;;11.10;34.70;;;;;;5017854;28;20459;-65
2023/10/24 04:48:46;;;;;;;18.13;14.60;;;11.20;34.80;;;;;;5027251;28;20466;-65
2023/10/24 04:51:13;;;;;;;16.60;14.30;;;11.20;34.60;;;;;;5025269;28;20920;-65
2023/10/24 04:53:40;;;;;;;20.03;13.80;;;11.20;34.70;;;;;;5027826;28;20462;-65
2023/10/24 04:56:07;;;;;;;16.83;13.80;;;11.20;34.80;;;;;;5023930;28;20489;-65
2023/10/24 04:58:33;;;;;;;16.97;14.53;;;11.20;34.80;;;;;;5021513;28;20458;-65
2023/10/24 05:01:00;;;;;;;17.43;15.40;;;11.20;34.60;;;;;;5015956;28;20471;-65
2023/10/24 05:03:27;;;;;;;18.60;15.53;;;11.10;34.80;;;;;;5007697;28;20476;-65
2023/10/24 05:05:56;;;;;;;17.77;14.37;;;11.20;34.60;;;;;;5008152;28;20480;-65
2023/10/24 05:08:22;;;;;;;18.53;14.60;;;11.20;34.90;;;;;;5007554;28;20460;-66
2023/10/24 05:10:49;;;;;;;18.60;14.20;;;11.20;34.90;;;;;;5009820;28;20463;-65
2023/10/24 05:13:16;;;;;;;20.07;13.30;;;11.20;34.70;;;;;;5006451;28;20456;-65
2023/10/24 05:15:43;;;;;;;15.90;14.07;;;11.20;34.50;;;;;;5007647;28;20475;-65
2023/10/24 05:18:11;;;;;;;24.53;14.60;;;11.20;34.70;;;;;;5007241;28;20460;-65
2023/10/24 05:20:38;;;;;;;67.97;16.20;;;11.20;34.90;;;;;;5008273;28;20456;-65
2023/10/24 05:23:06;;;;;;;94.97;17.20;;;11.20;34.70;;;;;;5006346;28;20456;-65
2023/10/24 05:25:33;;;;;;;33.20;14.70;;;11.20;35.30;;;;;;5006163;28;20498;-65
2023/10/24 05:28:00;;;;;;;25.60;14.70;;;11.10;34.90;;;;;;5007984;28;20498;-65
2023/10/24 05:30:26;;;;;;;19.53;12.93;;;11.10;35.00;;;;;;5005606;28;20471;-65
2023/10/24 05:32:53;;;;;;;77.27;17.30;;;11.10;35.00;;;;;;5000454;28;20471;-65
2023/10/24 05:35:20;;;;;;;25.10;14.20;;;11.10;35.20;;;;;;5006455;28;21050;-65
2023/10/24 05:37:46;;;;;;;16.87;13.70;;;11.00;35.00;;;;;;5003982;28;20468;-65
2023/10/24 05:40:14;;;;;;;17.80;14.13;;;11.10;35.00;;;;;;5005475;28;20452;-65
2023/10/24 05:42:41;;;;;;;14.23;12.73;;;11.10;34.90;;;;;;5011138;28;20455;-65
2023/10/24 05:45:09;;;;;;;15.00;12.80;;;11.10;34.90;;;;;;5010370;28;20533;-65
2023/10/24 05:47:36;;;;;;;15.20;12.60;;;11.10;35.00;;;;;;5009230;28;20503;-65
2023/10/24 05:50:03;;;;;;;18.47;13.40;;;11.10;35.00;;;;;;5010189;28;20459;-65
2023/10/24 05:52:29;;;;;;;16.10;13.40;;;11.10;34.90;;;;;;5009629;28;20471;-65
2023/10/24 05:54:56;;;;;;;17.73;14.53;;;11.10;34.80;;;;;;5007132;28;20499;-65
2023/10/24 05:57:24;;;;;;;22.40;18.17;;;11.10;34.80;;;;;;5007642;28;20471;-65
2023/10/24 05:59:51;;;;;;;30.07;20.73;;;11.10;34.80;;;;;;5005176;28;20495;-65
2023/10/24 06:02:18;;;;;;;22.07;15.20;;;11.10;34.80;;;;;;5026077;28;20479;-65
2023/10/24 06:04:44;;;;;;;21.20;16.10;;;11.00;34.80;;;;;;5023151;28;20482;-65
2023/10/24 06:07:11;;;;;;;19.93;16.07;;;11.10;34.70;;;;;;5030414;28;20471;-65
2023/10/24 06:09:38;;;;;;;17.33;15.53;;;11.10;34.90;;;;;;5029029;28;20466;-65
2023/10/24 06:12:05;;;;;;;22.10;16.37;;;11.10;34.80;;;;;;5030414;28;21114;-65
2023/10/24 06:14:34;;;;;;;22.63;15.77;;;11.10;34.90;;;;;;5027590;28;20488;-65
2023/10/24 06:17:01;;;;;;;17.30;15.03;;;11.10;34.90;;;;;;5029132;28;20459;-65
2023/10/24 06:19:30;;;;;;;18.00;14.23;;;11.10;34.90;;;;;;5029387;28;20485;-65
2023/10/24 06:21:57;;;;;;;19.07;14.73;;;11.10;34.80;;;;;;5030298;28;20466;-65
2023/10/24 06:24:23;;;;;;;21.87;15.53;;;11.20;34.80;;;;;;5029507;28;20550;-65
2023/10/24 06:26:50;;;;;;;18.37;15.23;;;11.20;34.80;;;;;;5026875;28;20514;-65
2023/10/24 06:29:17;;;;;;;22.77;14.97;;;11.20;34.80;;;;;;5030088;28;20462;-65
2023/10/24 06:31:45;;;;;;;18.50;14.23;;;11.20;34.80;;;;;;5022933;28;20493;-65
2023/10/24 06:34:12;;;;;;;16.07;14.33;;;11.30;34.70;;;;;;5024194;28;20472;-65
2023/10/24 06:36:38;;;;;;;20.10;14.77;;;11.30;35.00;;;;;;5027308;28;20493;-65
2023/10/24 06:39:05;;;;;;;38.30;27.50;;;11.30;34.70;;;;;;5039796;28;20473;-65
2023/10/24 06:41:33;;;;;;;26.17;22.23;;;11.40;34.70;;;;;;5041393;28;20927;-66
2023/10/24 06:44:00;;;;;;;30.70;27.00;;;11.30;34.80;;;;;;5027010;28;20483;-65
2023/10/24 06:46:27;;;;;;;70.73;34.57;;;11.30;34.90;;;;;;5022982;28;20998;-65
2023/10/24 06:48:55;;;;;;;41.33;36.47;;;11.30;34.80;;;;;;5029912;28;20462;-65
2023/10/24 06:51:21;;;;;;;30.47;27.23;;;11.30;34.90;;;;;;5024006;28;20463;-65
2023/10/24 06:53:48;;;;;;;44.23;17.03;;;11.30;34.90;;;;;;5024117;28;20459;-65
2023/10/24 06:56:15;;;;;;;74.13;16.83;;;11.30;34.90;;;;;;5020499;28;20455;-65
2023/10/24 06:58:41;;;;;;;18.30;14.17;;;11.30;35.10;;;;;;5028674;28;21179;-65
2023/10/24 07:01:08;;;;;;;20.60;16.20;;;11.20;35.30;;;;;;5026740;28;20514;-65
2023/10/24 07:03:35;;;;;;;17.40;14.83;;;11.30;35.10;;;;;;5028432;28;20462;-65
2023/10/24 07:06:04;;;;;;;51.50;16.07;;;11.30;35.20;;;;;;5024251;28;20483;-66
2023/10/24 07:08:31;;;;;;;17.53;13.87;;;11.30;35.10;;;;;;5028778;28;21019;-66
2023/10/24 07:10:58;;;;;;;22.33;13.80;;;11.30;35.10;;;;;;5028599;28;20459;-66
2023/10/24 07:13:25;;;;;;;24.13;15.40;;;11.30;35.00;;;;;;5027844;28;20529;-66
2023/10/24 07:15:52;;;;;;;15.20;13.30;;;11.30;35.10;;;;;;5020179;28;20513;-66
2023/10/24 07:18:18;;;;;;;18.13;14.30;;;11.30;35.00;;;;;;5027296;28;20931;-66
2023/10/24 07:20:45;;;;;;;16.57;13.27;;;11.30;35.10;;;;;;5029248;28;20474;-66
2023/10/24 07:23:14;;;;;;;18.73;15.00;;;11.40;35.10;;;;;;5028091;28;20455;-65
2023/10/24 07:25:41;;;;;;;17.23;15.40;;;11.40;35.00;;;;;;5027524;28;21113;-65
2023/10/24 07:28:08;;;;;;;18.50;14.77;;;11.40;35.00;;;;;;5023715;28;20494;-65
2023/10/24 07:30:34;;;;;;;16.03;13.90;;;11.40;34.90;;;;;;5025468;28;20485;-66
2023/10/24 07:33:01;;;;;;;18.53;14.10;;;11.50;35.10;;;;;;5023856;28;20470;-66
2023/10/24 07:35:28;;;;;;;21.10;16.47;;;11.50;34.80;;;;;;5024965;28;20482;-66
2023/10/24 07:37:54;;;;;;;18.93;16.93;;;11.50;35.10;;;;;;5027561;28;20459;-66
2023/10/24 07:40:22;;;;;;;19.80;17.57;;;11.60;35.10;;;;;;5025077;28;20455;-66
2023/10/24 07:42:49;;;;;;;19.23;17.23;;;11.60;34.90;;;;;;5019976;28;20459;-66
2023/10/24 07:45:16;;;;;;;24.17;19.67;;;11.60;34.70;;;;;;5026087;28;21246;-66
2023/10/24 07:47:43;;;;;;;22.97;18.27;;;11.70;34.90;;;;;;5027887;28;20542;-66
2023/10/24 07:50:10;;;;;;;34.73;21.20;;;11.70;34.80;;;;;;5026470;28;20463;-66
2023/10/24 07:52:37;;;;;;;36.27;20.33;;;11.80;34.80;;;;;;5023185;28;20455;-66
2023/10/24 07:55:04;;;;;;;38.57;21.30;;;11.80;34.50;;;;;;5026191;28;20470;-66
2023/10/24 07:57:32;;;;;;;32.50;19.80;;;11.90;34.70;;;;;;5021812;28;20482;-66
2023/10/24 07:59:59;;;;;;;21.47;16.67;;;11.90;35.30;;;;;;5027922;28;20466;-66
2023/10/24 08:02:26;;;;;;;25.80;17.90;;;12.00;34.70;;;;;;5025281;28;20474;-66
2023/10/24 08:04:52;;;;;;;16.53;14.37;;;12.00;34.70;;;;;;5026412;28;20483;-66
2023/10/24 08:07:19;;;;;;;17.30;14.23;;;12.00;34.70;;;;;;5022099;28;20470;-66
2023/10/24 08:09:46;;;;;;;18.10;16.20;;;12.10;34.70;;;;;;5023817;28;20525;-66
2023/10/24 08:12:12;;;;;;;17.17;15.10;;;12.10;34.60;;;;;;5019809;28;20838;-66
2023/10/24 08:14:40;;;;;;;16.03;14.33;;;12.20;34.60;;;;;;5024958;28;20482;-66
2023/10/24 08:17:07;;;;;;;15.37;13.60;;;12.20;34.20;;;;;;5025570;28;20459;-66
2023/10/24 08:19:34;;;;;;;17.63;14.63;;;12.30;34.30;;;;;;5022166;28;20477;-66
2023/10/24 08:22:00;;;;;;;16.70;14.43;;;12.30;33.90;;;;;;5024830;28;20463;-66
2023/10/24 08:24:27;;;;;;;26.33;16.63;;;12.40;33.70;;;;;;5028067;28;20506;-66
2023/10/24 08:26:54;;;;;;;26.97;18.07;;;12.40;33.70;;;;;;5027753;28;20465;-66
2023/10/24 08:29:20;;;;;;;18.47;14.70;;;12.40;33.70;;;;;;5023848;28;20462;-66
2023/10/24 08:31:48;;;;;;;18.17;14.13;;;12.50;33.60;;;;;;5020013;28;20478;-66
2023/10/24 08:34:15;;;;;;;16.37;13.23;;;12.50;33.10;;;;;;5025395;28;20490;-66
2023/10/24 08:36:42;;;;;;;15.60;13.93;;;12.60;33.10;;;;;;5024592;28;20463;-66
2023/10/24 08:39:08;;;;;;;14.70;13.23;;;12.60;33.30;;;;;;5022656;28;20459;-66
2023/10/24 08:41:35;;;;;;;16.77;14.97;;;12.60;33.30;;;;;;5022242;28;20475;-66
2023/10/24 08:44:04;;;;;;;17.83;14.40;;;12.60;33.50;;;;;;5026165;28;20475;-66
2023/10/24 08:46:32;;;;;;;18.93;15.90;;;12.60;33.40;;;;;;5025123;28;20466;-66
2023/10/24 08:49:02;;;;;;;17.00;14.73;;;12.60;33.40;;;;;;5025905;28;20455;-66
2023/10/24 08:51:29;;;;;;;16.37;14.03;;;12.70;33.50;;;;;;5027922;28;20465;-66
2023/10/24 08:53:56;;;;;;;15.83;13.43;;;12.70;33.50;;;;;;5024138;28;20455;-66
2023/10/24 08:56:23;;;;;;;18.80;14.90;;;12.70;33.50;;;;;;5023460;28;20463;-66
2023/10/24 08:58:51;;;;;;;20.27;15.90;;;12.70;33.60;;;;;;5026039;28;20463;-66
2023/10/24 09:01:17;;;;;;;20.67;17.87;;;12.70;33.50;;;;;;5026758;28;20475;-66
2023/10/24 09:03:45;;;;;;;22.13;17.13;;;12.80;33.40;;;;;;5025605;28;20462;-66
2023/10/24 09:06:13;;;;;;;18.03;15.70;;;12.80;33.40;;;;;;5027422;28;20485;-66
2023/10/24 09:08:40;;;;;;;16.37;14.63;;;12.80;33.30;;;;;;5026881;28;21180;-66
2023/10/24 09:11:07;;;;;;;16.90;14.87;;;12.80;33.20;;;;;;5026713;28;20455;-66
2023/10/24 09:13:34;;;;;;;15.63;14.03;;;12.90;33.60;;;;;;5027231;28;20466;-66
2023/10/24 09:16:08;;;;;;;16.33;13.50;;;12.90;32.90;;;;;;5029059;28;20986;-66
2023/10/24 09:18:36;;;;;;;15.93;14.23;;;12.90;33.10;;;;;;5030144;28;20459;-66
2023/10/24 09:21:04;;;;;;;17.20;14.70;;;12.90;33.10;;;;;;5021306;28;20558;-66
2023/10/24 09:23:32;;;;;;;15.70;14.00;;;12.90;33.10;;;;;;5026583;28;20545;-66
2023/10/24 09:26:02;;;;;;;16.40;13.40;;;13.00;33.00;;;;;;5030744;28;20518;-66
2023/10/24 09:28:29;;;;;;;20.37;13.90;;;13.00;33.00;;;;;;5031499;28;20947;-66
2023/10/24 09:30:57;;;;;;;17.03;14.60;;;13.00;33.00;;;;;;5016005;28;20486;-66
2023/10/24 09:33:25;;;;;;;17.83;14.80;;;13.00;33.10;;;;;;5007010;28;20506;-67
2023/10/24 09:35:52;;;;;;;17.37;14.90;;;13.00;32.90;;;;;;5006825;28;20968;-66
2023/10/24 09:38:21;;;;;;;18.33;16.43;;;13.10;32.90;;;;;;5016141;28;20463;-67
2023/10/24 09:40:51;;;;;;;21.83;19.53;;;13.10;33.00;;;;;;5022708;28;20457;-66
2023/10/24 09:43:21;;;;;;;22.70;19.73;;;13.10;33.00;;;;;;5006149;28;20472;-66
2023/10/24 09:45:50;;;;;;;24.43;17.23;;;13.20;32.90;;;;;;5006971;28;20491;-67
2023/10/24 09:48:17;;;;;;;17.43;15.57;;;13.20;32.90;;;;;;5010425;28;20460;-66
2023/10/24 09:50:44;;;;;;;25.10;15.50;;;13.30;32.80;;;;;;5007825;28;20529;-66
2023/10/24 09:53:12;;;;;;;17.73;15.63;;;13.30;32.90;;;;;;5006870;28;20511;-66
2023/10/24 09:55:40;;;;;;;18.57;16.53;;;13.30;32.90;;;;;;5006283;28;20492;-66
2023/10/24 09:58:09;;;;;;;18.37;16.47;;;13.30;33.00;;;;;;5006925;28;20917;-66
2023/10/24 10:00:36;;;;;;;18.97;16.80;;;13.30;32.90;;;;;;5007891;28;20500;-66
2023/10/24 10:03:04;;;;;;;17.03;15.33;;;13.30;32.90;;;;;;5026086;28;20970;-66
2023/10/24 10:05:33;;;;;;;19.43;15.33;;;13.30;33.00;;;;;;5027870;28;20510;-66
2023/10/24 10:08:02;;;;;;;21.00;14.97;;;13.30;33.00;;;;;;5026540;28;20557;-66
2023/10/24 10:10:30;;;;;;;27.20;21.77;;;13.40;32.60;;;;;;5030505;28;20470;-66
2023/10/24 10:13:02;;;;;;;24.43;18.10;;;13.40;32.40;;;;;;5028094;28;21026;-67
2023/10/24 10:16:01;;;;;;;25.83;20.70;;;13.40;32.40;;;;;;5041891;23;20502;-68
2023/10/24 10:18:47;;;;;;;20.63;15.77;;;13.40;32.50;;;;;;5029162;28;20451;-67
2023/10/24 10:21:24;;;;;;;20.57;16.37;;;13.40;32.40;;;;;;5031440;28;20969;-67
2023/10/24 10:24:19;;;;;;;20.60;17.30;;;13.30;32.50;;;;;;5028610;28;20470;-68
2023/10/24 10:26:59;;;;;;;22.87;18.67;;;13.40;32.70;;;;;;5017227;28;21006;-68
2023/10/24 10:29:38;;;;;;;20.73;17.17;;;13.30;32.90;;;;;;5027418;28;20471;-68
2023/10/24 10:32:18;;;;;;;19.03;17.00;;;13.30;33.20;;;;;;5025676;28;20475;-67
2023/10/24 10:34:45;;;;;;;22.60;17.60;;;13.30;33.20;;;;;;5022254;28;20482;-69
2023/10/24 10:37:12;;;;;;;21.53;18.83;;;13.30;33.30;;;;;;5020782;28;20462;-67
2023/10/24 10:39:39;;;;;;;23.33;17.27;;;13.30;33.20;;;;;;5027958;28;20524;-67
2023/10/24 10:42:07;;;;;;;25.50;17.73;;;13.30;33.10;;;;;;5022679;28;20463;-67
2023/10/24 10:44:41;;;;;;;19.40;17.30;;;13.40;32.90;;;;;;5030213;28;20519;-68
2023/10/24 10:47:12;;;;;;;24.03;19.00;;;13.40;33.00;;;;;;5025513;28;20462;-68
2023/10/24 10:49:43;;;;;;;23.70;19.10;;;13.40;33.00;;;;;;5026793;28;20839;-68
2023/10/24 10:52:22;;;;;;;20.93;18.30;;;13.40;33.10;;;;;;5025355;28;20460;-68
2023/10/24 10:54:57;;;;;;;20.13;16.30;;;13.40;33.30;;;;;;5023540;28;20476;-68
2023/10/24 10:57:30;;;;;;;20.43;17.60;;;13.40;33.40;;;;;;5026568;28;20462;-68
2023/10/24 11:00:03;;;;;;;23.07;19.10;;;13.40;33.50;;;;;;5031709;28;20463;-68
2023/10/24 11:02:49;;;;;;;22.13;17.93;;;13.40;33.40;;;;;;5027438;28;20471;-68
2023/10/24 11:05:50;;;;;;;21.70;19.33;;;13.40;33.60;;;;;;5030008;28;20482;-67
2023/10/24 11:08:22;;;;;;;29.33;20.10;;;13.40;33.90;;;;;;5023832;28;20970;-68
2023/10/24 11:11:07;;;;;;;25.30;22.50;;;13.40;33.80;;;;;;5023795;28;21034;-67
2023/10/24 11:13:40;;;;;;;24.83;21.33;;;13.50;33.90;;;;;;5029630;28;20547;-68
2023/10/24 11:16:08;;;;;;;27.57;24.40;;;13.50;33.60;;;;;;5023774;28;20906;-67
2023/10/24 11:18:38;;;;;;;31.30;26.67;;;13.50;33.80;;;;;;5032473;28;20813;-65
2023/10/24 11:21:07;;;;;;;33.00;29.53;;;13.50;34.00;;;;;;5029366;28;20458;-65
2023/10/24 11:23:34;;;;;;;36.90;33.10;;;13.60;34.00;;;;;;5025510;28;20963;-64
2023/10/24 11:26:02;;;;;;;35.90;31.20;;;13.60;33.70;;;;;;5020650;28;20476;-65
2023/10/24 11:28:30;;;;;;;34.72;29.42;;;13.60;33.80;;;;;;5020520;28;20463;-65
2023/10/24 11:30:57;;;;;;;33.67;26.47;;;13.60;34.40;;;;;;5023160;28;20233;-65
2023/10/24 11:33:24;;;;;;;28.10;24.80;;;13.70;34.30;;;;;;5026136;28;20467;-65
2023/10/24 11:35:52;;;;;;;31.20;21.90;;;13.70;34.20;;;;;;5028740;28;20478;-64
2023/10/24 11:38:19;;;;;;;24.80;21.60;;;13.80;33.90;;;;;;5024833;28;20460;-65
2023/10/24 11:40:49;;;;;;;28.67;24.07;;;13.80;33.80;;;;;;5027566;28;20457;-65
2023/10/24 11:43:17;;;;;;;28.27;24.10;;;13.90;34.00;;;;;;5026749;28;20505;-65
2023/10/24 11:45:45;;;;;;;33.43;23.40;;;13.90;33.70;;;;;;5028474;28;21040;-65
2023/10/24 11:48:12;;;;;;;39.10;24.87;;;13.90;33.70;;;;;;5022934;28;20473;-65
2023/10/24 11:50:40;;;;;;;29.23;25.30;;;14.00;33.70;;;;;;5020265;28;20531;-65
2023/10/24 11:53:09;;;;;;;28.80;25.80;;;14.00;33.80;;;;;;5026223;28;20456;-65
2023/10/24 11:55:35;;;;;;;32.17;28.60;;;14.00;33.90;;;;;;5027477;28;20471;-65
2023/10/24 11:58:05;;;;;;;31.00;27.53;;;14.00;33.90;;;;;;5026398;28;20455;-65
2023/10/24 12:00:32;;;;;;;35.40;27.50;;;14.00;33.90;;;;;;5020489;28;20467;-65
2023/10/24 12:03:03;;;;;;;30.93;27.43;;;14.00;33.90;;;;;;5010375;28;20466;-65
2023/10/24 12:05:31;;;;;;;34.10;28.27;;;14.10;33.90;;;;;;5010539;28;20492;-65
2023/10/24 12:07:58;;;;;;;34.47;29.00;;;14.10;34.00;;;;;;5010913;28;20462;-64
2023/10/24 12:10:30;;;;;;;32.63;26.60;;;14.10;33.90;;;;;;5011377;28;20454;-64
2023/10/24 12:12:58;;;;;;;28.63;25.43;;;14.10;33.70;;;;;;5012238;28;20460;-64
2023/10/24 12:15:26;;;;;;;32.23;25.43;;;14.10;33.60;;;;;;5009409;28;20470;-64
2023/10/24 12:17:52;;;;;;;31.00;25.57;;;14.10;33.70;;;;;;5011146;28;20456;-64
2023/10/24 12:20:20;;;;;;;29.57;26.20;;;14.10;33.60;;;;;;5007849;28;20830;-65
2023/10/24 12:22:47;;;;;;;32.03;26.70;;;14.10;33.90;;;;;;5008082;28;20456;-64
2023/10/24 12:25:14;;;;;;;32.90;26.30;;;14.10;34.30;;;;;;5007985;28;20484;-64
2023/10/24 12:27:42;;;;;;;31.97;28.03;;;14.10;34.80;;;;;;5009743;28;20464;-64
2023/10/24 12:30:10;;;;;;;32.07;27.60;;;14.10;34.90;;;;;;5008705;28;20479;-64
2023/10/24 12:32:37;;;;;;;32.20;28.73;;;14.10;34.90;;;;;;5007676;28;20495;-64